Aérodrome :
LOGIN :

S'inscrire | Disclaimer

   EN    FR    IT 

 










Légende :    VFR   VFR Marginal   IFR   IFR Intensif   IFR Très Intensif
Visi : 
Plafond : 
>= 8 km
>= 3000ft
5 à 8 km
1000 à 3000 ft
1500m à 5 km
500 à 1000 ft
800 à 1500m
200 à 500 ft
< 800m
< 200 ft
Symboles :   Orages  Brouillard  Fortes neiges  Fortes précipitations  Vent > 20 kt
SIGMETs :   Divers  Orages  Givrage  Turbulence  Onde Orograph.  Cendres Volcan.






- Altitude de l'aérodrome : 157 ft
- Code IATA : LIL


LFQQ - Lille Lesquin

DERNIER METAR :
  • 080500Z AUTO 08003KT 5000 BR NSC 10/08 Q1024 NOSIG

METARs EXPIRÉS :
  • 080430Z AUTO 05003KT 7000 NSC 09/08 Q1024 NOSIG
  • 080400Z AUTO 00000KT 7000 NSC 10/07 Q1024 NOSIG
  • 080330Z AUTO 10001KT 7000 NSC 10/07 Q1024 NOSIG
  • 080300Z AUTO 07004KT 8000 NSC 11/08 Q1024 NOSIG
  • 080230Z AUTO 06003KT CAVOK 12/08 Q1025 NOSIG

TAF AMD TAF LFQQ
Valide du 08 à 04h jusqu'au 09 à 06h UTC


080411Z 0804/0906 05005KT 7000 NSC
BECMG 0806/0807 CAVOK
ATIS : +33 3 20 16 19 54



MET'MAP, la Météo Aéronautique d'un coup d'oeil ! - Copyright ORBIFLY Décembre 2007 - Disclaimer

ORBIFLY MET'MAP TEAM :

Programmation & Développement : Alexandra Zaïnal
Sur une idée originale de : Baudouin d'Aumeries
Assistance à la programmation : Marc-Olivier Méhu
Soutien technique & logistique : Manuel Goepfert

Contact : metmap@orbifly.com




SOURCES & CREDITS :

   NOAA